Time;durP1;ratioP1;P1;durP2;ratioP2;P2;SDS_P1;SDS_P2;PMS_P1;PMS_P2;Temp;Humidity;BMP_temperature;BMP_pressure;BME280_temperature;BME280_humidity;BME280_pressure;Samples;Min_cycle;Max_cycle;Signal;HPM_P1;HPM_P2
2022/07/13 00:03:36;;;;;;;0.90;0.75;;;22.00;99.90;;;;;;13048176;22;20243;-88
2022/07/13 00:08:39;;;;;;;0.82;0.75;;;22.00;99.90;;;;;;13046825;22;20169;-88
2022/07/13 00:13:42;;;;;;;1.40;0.95;;;22.50;99.90;;;;;;13020263;22;20231;-88
2022/07/13 00:18:44;;;;;;;1.15;1.00;;;22.40;99.90;;;;;;13044845;22;20220;-89
2022/07/13 00:23:47;;;;;;;1.63;1.08;;;22.20;99.90;;;;;;13019976;22;20258;-88
2022/07/13 00:28:49;;;;;;;0.93;0.73;;;22.40;99.90;;;;;;13044988;22;20497;-89
2022/07/13 00:33:52;;;;;;;1.35;0.88;;;22.20;99.90;;;;;;13044666;22;20207;-89
2022/07/13 00:38:55;;;;;;;1.00;0.90;;;22.00;99.90;;;;;;13045650;22;20259;-89
2022/07/13 00:44:10;;;;;;;1.80;1.08;;;22.10;99.90;;;;;;13046036;22;20519;-89
2022/07/13 00:49:13;;;;;;;1.42;1.25;;;22.00;99.90;;;;;;13044993;22;20176;-89
2022/07/13 00:54:19;;;;;;;0.95;0.75;;;22.00;99.90;;;;;;13047282;22;20239;-89
2022/07/13 00:59:24;;;;;;;2.03;1.30;;;22.20;99.90;;;;;;13065566;22;20527;-89
2022/07/13 01:04:38;;;;;;;1.15;1.05;;;22.40;99.90;;;;;;13018897;22;20834;-88
2022/07/13 01:09:41;;;;;;;1.73;0.80;;;21.90;99.90;;;;;;13044498;22;20211;-88
2022/07/13 01:14:44;;;;;;;1.27;0.75;;;22.20;99.90;;;;;;13044743;22;20181;-88
2022/07/13 01:19:47;;;;;;;1.08;0.93;;;22.40;99.90;;;;;;13046162;22;20552;-89
2022/07/13 01:24:50;;;;;;;1.30;1.10;;;22.40;99.90;;;;;;13046423;22;20242;-89
2022/07/13 01:29:53;;;;;;;1.40;1.08;;;22.50;99.90;;;;;;13043966;22;20169;-89
2022/07/13 01:34:56;;;;;;;1.17;1.08;;;22.30;99.90;;;;;;13018163;22;20823;-90
2022/07/13 01:39:59;;;;;;;1.77;1.20;;;22.20;99.90;;;;;;13043014;22;20201;-89
2022/07/13 01:45:01;;;;;;;0.88;0.80;;;22.30;99.90;;;;;;13017926;22;20246;-89
2022/07/13 01:50:06;;;;;;;1.10;1.00;;;22.00;99.90;;;;;;13017788;22;20520;-90
2022/07/13 01:55:10;;;;;;;0.90;0.80;;;22.30;99.90;;;;;;13041480;22;20181;-88
2022/07/13 02:00:16;;;;;;;1.08;0.95;;;22.30;99.90;;;;;;13042507;22;20631;-89
2022/07/13 02:05:20;;;;;;;1.10;0.98;;;22.10;99.90;;;;;;13015820;22;20193;-89
2022/07/13 02:10:34;;;;;;;1.25;1.05;;;22.20;99.90;;;;;;13042951;22;20173;-89
2022/07/13 02:15:38;;;;;;;1.10;0.85;;;22.20;99.90;;;;;;13015919;22;20238;-89
2022/07/13 02:20:41;;;;;;;1.23;1.00;;;22.30;99.90;;;;;;13016009;22;20254;-88
2022/07/13 02:25:44;;;;;;;3.72;1.20;;;22.30;99.90;;;;;;13041387;22;20230;-89
2022/07/13 02:30:47;;;;;;;1.08;0.90;;;22.40;99.90;;;;;;13044046;22;20477;-89
2022/07/13 02:35:49;;;;;;;1.60;1.10;;;22.50;99.90;;;;;;13041255;22;20181;-89
2022/07/13 02:40:52;;;;;;;0.80;0.70;;;22.40;99.90;;;;;;13015040;22;20733;-89
2022/07/13 02:45:54;;;;;;;0.82;0.80;;;22.30;99.90;;;;;;13047050;22;20177;-90
2022/07/13 02:50:57;;;;;;;1.00;0.90;;;22.40;99.90;;;;;;13050190;22;20557;-89
2022/07/13 02:56:00;;;;;;;1.27;1.17;;;22.40;99.90;;;;;;13023890;22;20234;-90
2022/07/13 03:01:05;;;;;;;1.95;1.30;;;22.40;99.90;;;;;;13049446;22;20250;-89
2022/07/13 03:06:08;;;;;;;1.25;1.10;;;22.40;99.90;;;;;;13049665;22;20574;-90
2022/07/13 03:11:12;;;;;;;1.73;1.05;;;22.30;99.90;;;;;;13050176;22;20181;-89
2022/07/13 03:16:14;;;;;;;2.55;1.20;;;22.40;99.90;;;;;;13048657;22;20172;-89
2022/07/13 03:21:17;;;;;;;1.33;1.23;;;22.40;99.90;;;;;;13023563;22;20668;-89
2022/07/13 03:26:19;;;;;;;1.55;1.23;;;22.30;99.90;;;;;;13047780;22;20226;-89
2022/07/13 03:31:23;;;;;;;1.27;1.05;;;22.20;99.90;;;;;;13046118;22;20181;-89
2022/07/13 03:36:25;;;;;;;1.33;1.23;;;22.30;99.90;;;;;;13048568;22;20496;-89
2022/07/13 03:41:30;;;;;;;1.50;1.00;;;22.30;99.90;;;;;;13045300;22;20250;-89
2022/07/13 03:46:32;;;;;;;1.60;1.27;;;22.30;99.90;;;;;;13048194;22;20496;-89
2022/07/13 03:51:38;;;;;;;1.42;1.30;;;22.30;99.90;;;;;;13020573;22;20242;-89
2022/07/13 03:56:41;;;;;;;1.52;1.10;;;22.10;99.90;;;;;;13043043;22;20185;-89
2022/07/13 04:01:44;;;;;;;1.55;0.90;;;22.20;99.90;;;;;;13043234;22;20659;-88
2022/07/13 04:06:47;;;;;;;1.42;1.23;;;22.30;99.90;;;;;;13043803;22;20211;-89
2022/07/13 04:11:50;;;;;;;1.65;1.55;;;22.30;99.90;;;;;;13045257;22;20230;-90
2022/07/13 04:16:54;;;;;;;1.83;1.13;;;22.30;99.90;;;;;;13044037;22;20180;-89
2022/07/13 04:21:57;;;;;;;1.45;1.20;;;22.30;99.90;;;;;;13045911;22;20235;-89
2022/07/13 04:27:01;;;;;;;1.35;0.98;;;22.50;99.90;;;;;;13039907;22;20173;-88
2022/07/13 04:32:04;;;;;;;1.27;1.17;;;22.70;99.90;;;;;;13039643;22;20185;-89
2022/07/13 04:37:06;;;;;;;1.48;1.08;;;22.80;99.90;;;;;;13062956;22;20177;-89
2022/07/13 04:42:09;;;;;;;1.85;1.10;;;22.70;99.90;;;;;;13043068;22;20227;-89
2022/07/13 04:47:14;;;;;;;2.40;1.05;;;22.60;99.90;;;;;;13042907;22;20173;-89
2022/07/13 04:52:17;;;;;;;1.30;1.20;;;22.50;99.90;;;;;;13044541;22;20185;-89
2022/07/13 04:57:20;;;;;;;1.33;0.90;;;22.50;99.90;;;;;;13042295;22;20511;-89
2022/07/13 05:02:22;;;;;;;1.58;1.17;;;22.10;99.90;;;;;;13042532;22;20197;-89
2022/07/13 05:07:25;;;;;;;2.50;1.35;;;22.20;99.90;;;;;;13017844;22;20173;-89
2022/07/13 05:12:28;;;;;;;1.92;1.23;;;22.40;99.90;;;;;;13041400;22;20553;-89
2022/07/13 05:17:31;;;;;;;1.83;1.35;;;22.10;99.90;;;;;;13018531;22;20177;-89
2022/07/13 05:22:36;;;;;;;1.58;1.15;;;22.10;99.90;;;;;;13043760;22;20189;-90
2022/07/13 05:27:38;;;;;;;1.02;1.00;;;22.20;99.90;;;;;;13042955;22;20169;-89
2022/07/13 05:32:41;;;;;;;1.65;1.10;;;22.10;99.90;;;;;;13042955;22;20536;-91
2022/07/13 05:37:44;;;;;;;1.05;0.98;;;22.40;99.90;;;;;;13017486;22;20181;-90
2022/07/13 05:42:47;;;;;;;1.13;1.00;;;22.30;99.90;;;;;;13017569;22;20262;-90
2022/07/13 05:47:50;;;;;;;1.60;1.17;;;22.20;99.90;;;;;;13043103;22;20177;-90
2022/07/13 05:52:55;;;;;;;1.20;1.10;;;22.20;99.90;;;;;;13016132;22;20181;-90
2022/07/13 05:57:59;;;;;;;1.35;1.23;;;22.10;99.90;;;;;;13017896;22;20176;-90
2022/07/13 06:03:01;;;;;;;2.28;1.55;;;21.90;99.90;;;;;;13045159;22;20185;-89
2022/07/13 06:08:04;;;;;;;4.60;1.48;;;22.10;99.90;;;;;;13042947;22;20161;-89
2022/07/13 06:13:06;;;;;;;0.80;0.80;;;22.10;99.90;;;;;;13044847;22;20521;-90
2022/07/13 06:18:09;;;;;;;1.42;1.00;;;22.20;99.90;;;;;;13040240;22;20254;-89
2022/07/13 06:23:14;;;;;;;2.40;1.08;;;22.40;99.90;;;;;;13013793;22;20227;-89
2022/07/13 06:28:16;;;;;;;1.55;0.95;;;22.10;99.90;;;;;;13043210;22;20545;-89
2022/07/13 06:33:19;;;;;;;1.17;1.08;;;22.20;99.90;;;;;;13043658;22;20218;-90
2022/07/13 06:38:21;;;;;;;1.58;1.08;;;22.10;99.90;;;;;;13053568;22;20231;-89
2022/07/13 06:43:23;;;;;;;2.45;0.80;;;22.40;99.90;;;;;;13057100;22;20188;-89
2022/07/13 06:48:26;;;;;;;1.60;1.20;;;22.60;99.90;;;;;;13038649;22;20165;-88
2022/07/13 06:53:28;;;;;;;1.52;1.42;;;22.80;99.90;;;;;;13038337;22;20507;-88
2022/07/13 06:58:31;;;;;;;0.93;0.90;;;23.20;99.90;;;;;;13038083;22;20181;-86
2022/07/13 07:03:34;;;;;;;0.93;0.70;;;23.30;99.90;;;;;;13037363;22;20258;-88
2022/07/13 07:08:40;;;;;;;0.80;0.65;;;23.30;99.70;;;;;;13024865;22;20200;-95
2022/07/13 07:13:47;;;;;;;1.02;0.70;;;23.50;96.40;;;;;;13081148;22;20627;-94
2022/07/13 07:18:50;;;;;;;2.83;0.70;;;22.50;97.70;;;;;;13052333;22;20202;-86
2022/07/13 07:24:13;;;;;;;5.80;0.85;;;22.70;98.00;;;;;;13076551;22;20290;-89
2022/07/13 07:29:16;;;;;;;1.42;1.20;;;22.80;97.70;;;;;;13106303;22;20168;-89
2022/07/13 07:34:18;;;;;;;1.55;0.75;;;22.80;98.00;;;;;;13108591;22;20237;-90
2022/07/13 07:39:22;;;;;;;6.25;0.82;;;23.00;98.30;;;;;;13090080;22;20195;-89
2022/07/13 07:44:25;;;;;;;0.80;0.50;;;23.00;97.70;;;;;;13054777;22;20259;-88
2022/07/13 07:49:28;;;;;;;0.90;0.70;;;23.00;97.70;;;;;;13081585;22;20164;-88
2022/07/13 07:54:31;;;;;;;4.38;1.02;;;23.00;97.90;;;;;;13109125;22;20249;-89
2022/07/13 07:59:33;;;;;;;0.70;0.70;;;22.90;97.90;;;;;;13108991;22;20541;-90
2022/07/13 08:04:36;;;;;;;1.17;0.70;;;22.80;98.60;;;;;;13079336;22;20533;-90
2022/07/13 08:09:38;;;;;;;2.38;1.00;;;22.80;98.70;;;;;;13078354;22;20200;-89
2022/07/13 08:14:42;;;;;;;2.63;0.90;;;22.90;99.90;;;;;;13107483;22;20164;-89
2022/07/13 08:19:50;;;;;;;1.55;0.90;;;23.10;99.40;;;;;;13125163;22;20214;-89
2022/07/13 08:24:54;;;;;;;3.95;0.98;;;23.30;96.50;;;;;;13085868;22;20572;-89
2022/07/13 08:29:57;;;;;;;0.60;0.60;;;23.40;96.30;;;;;;13070920;22;20161;-89
2022/07/13 08:40:22;;;;;;;7.65;0.95;;;23.40;94.20;;;;;;13107455;22;20222;-91
2022/07/13 08:45:25;;;;;;;5.15;0.88;;;23.50;91.40;;;;;;13080620;22;20188;-90
2022/07/13 08:50:32;;;;;;;1.35;1.00;;;23.80;93.20;;;;;;13079403;22;20499;-89
2022/07/13 08:55:36;;;;;;;3.17;0.73;;;23.80;93.80;;;;;;13083555;22;20172;-90
2022/07/13 09:00:40;;;;;;;1.10;0.63;;;24.00;92.40;;;;;;13077767;22;20233;-90
2022/07/13 09:05:43;;;;;;;0.90;0.90;;;24.20;93.20;;;;;;13078895;22;20245;-89
2022/07/13 09:10:58;;;;;;;1.90;0.80;;;23.80;92.80;;;;;;13105534;22;20519;-90
2022/07/13 09:16:13;;;;;;;2.13;0.80;;;24.00;92.60;;;;;;13096312;22;20237;-89
2022/07/13 09:21:18;;;;;;;1.13;0.98;;;24.50;92.50;;;;;;13052907;22;20233;-89
2022/07/13 09:26:21;;;;;;;4.57;1.67;;;24.20;93.00;;;;;;13077532;22;20662;-90
2022/07/13 09:31:24;;;;;;;4.32;0.98;;;24.30;90.70;;;;;;13094699;22;20165;-91
2022/07/13 09:36:26;;;;;;;3.42;1.85;;;24.20;93.20;;;;;;13050753;22;20511;-90
2022/07/13 09:41:35;;;;;;;1.67;0.88;;;24.40;90.60;;;;;;13105812;22;20218;-90
2022/07/13 09:46:58;;;;;;;3.25;1.13;;;24.50;92.80;;;;;;13079021;22;20188;-90
2022/07/13 09:52:06;;;;;;;2.08;0.85;;;24.20;94.00;;;;;;13077688;22;20202;-92
2022/07/13 09:57:14;;;;;;;6.30;1.27;;;24.10;94.70;;;;;;13078783;22;20173;-91
2022/07/13 10:02:19;;;;;;;1.38;1.10;;;24.30;94.20;;;;;;13123431;22;20164;-90
2022/07/13 10:07:22;;;;;;;3.92;1.15;;;24.10;94.80;;;;;;13052233;22;20257;-90
2022/07/13 10:12:25;;;;;;;2.17;0.90;;;24.00;96.00;;;;;;13104495;22;20192;-89
2022/07/13 10:17:28;;;;;;;1.40;1.10;;;24.20;95.00;;;;;;13105133;22;20710;-90
2022/07/13 10:22:45;;;;;;;3.00;1.90;;;24.10;98.70;;;;;;13078422;22;20168;-90
2022/07/13 10:28:05;;;;;;;2.30;1.35;;;24.20;98.10;;;;;;13123666;22;20483;-90
2022/07/13 10:33:22;;;;;;;2.28;1.52;;;24.10;98.10;;;;;;13050787;22;20176;-90
2022/07/13 10:38:29;;;;;;;1.40;1.15;;;24.20;99.30;;;;;;13051628;22;20530;-89
2022/07/13 10:43:32;;;;;;;1.65;1.42;;;24.20;98.70;;;;;;13122709;22;20553;-88
2022/07/13 10:48:34;;;;;;;2.45;1.48;;;24.30;98.90;;;;;;13101792;22;20229;-88
2022/07/13 10:53:37;;;;;;;1.40;1.20;;;24.20;99.50;;;;;;13073765;22;20225;-88
2022/07/13 10:58:40;;;;;;;4.88;2.88;;;24.20;96.50;;;;;;13051090;22;20214;-96
2022/07/13 11:03:47;;;;;;;3.88;2.40;;;23.80;99.90;;;;;;13075841;22;20200;-88
2022/07/13 11:09:13;;;;;;;6.25;2.50;;;24.00;99.90;;;;;;13053827;22;20200;-88
2022/07/13 11:14:34;;;;;;;5.18;1.90;;;24.40;99.90;;;;;;13053982;22;20233;-89
2022/07/13 11:20:09;;;;;;;2.83;2.08;;;24.50;99.90;;;;;;13126411;22;20168;-89
2022/07/13 11:25:16;;;;;;;4.57;2.45;;;24.80;99.90;;;;;;13080311;22;20192;-88
2022/07/13 11:30:26;;;;;;;2.80;2.08;;;24.80;99.80;;;;;;13100911;22;20194;-88
2022/07/13 11:35:29;;;;;;;2.35;2.08;;;24.60;99.90;;;;;;13082605;22;20230;-88
2022/07/13 11:40:32;;;;;;;2.30;2.10;;;24.70;99.90;;;;;;13109443;22;20198;-88
2022/07/13 11:45:38;;;;;;;5.38;2.40;;;24.60;99.90;;;;;;13110058;22;20648;-89
2022/07/13 11:50:45;;;;;;;2.47;2.17;;;24.50;99.90;;;;;;13081266;22;20176;-89
2022/07/13 11:55:48;;;;;;;2.15;1.95;;;24.80;99.90;;;;;;13088743;22;20457;-89
2022/07/13 12:00:51;;;;;;;3.33;2.22;;;25.00;98.60;;;;;;13110087;22;20168;-89
2022/07/13 12:06:05;;;;;;;3.00;2.70;;;25.10;99.10;;;;;;13085146;22;20257;-88
2022/07/13 12:11:15;;;;;;;3.30;2.00;;;25.10;99.90;;;;;;13086015;22;20257;-88
2022/07/13 12:16:18;;;;;;;2.40;2.20;;;25.20;97.70;;;;;;13060313;22;20180;-88
2022/07/13 12:21:21;;;;;;;2.20;2.00;;;25.50;99.20;;;;;;13057607;22;20180;-88
2022/07/13 12:26:25;;;;;;;3.08;2.30;;;25.30;96.80;;;;;;13110732;22;20237;-89
2022/07/13 12:31:29;;;;;;;5.43;1.98;;;25.50;98.90;;;;;;13054882;22;20230;-88
2022/07/13 12:36:37;;;;;;;2.08;1.88;;;25.40;96.60;;;;;;13079977;22;20206;-89
2022/07/13 12:41:43;;;;;;;2.85;1.80;;;25.30;97.00;;;;;;13081194;22;20571;-89
2022/07/13 12:46:47;;;;;;;3.92;2.00;;;25.50;96.50;;;;;;13099029;22;20184;-89
2022/07/13 12:51:52;;;;;;;3.42;1.77;;;25.50;97.50;;;;;;13080170;22;20502;-89
2022/07/13 12:56:54;;;;;;;2.20;2.00;;;25.50;95.90;;;;;;13097335;22;20214;-89
2022/07/13 13:01:58;;;;;;;3.35;1.85;;;25.70;94.70;;;;;;13054072;22;20180;-88
2022/07/13 13:07:01;;;;;;;3.17;1.83;;;25.60;95.10;;;;;;13078936;22;20547;-88
2022/07/13 13:12:03;;;;;;;3.08;2.13;;;25.80;95.60;;;;;;13053425;22;20885;-88
2022/07/13 13:17:06;;;;;;;18.88;3.72;;;25.90;95.20;;;;;;13052168;22;20172;-88
2022/07/13 13:22:08;;;;;;;6.47;2.22;;;25.90;94.00;;;;;;13081436;22;20214;-87
2022/07/13 13:27:11;;;;;;;4.55;3.10;;;25.50;96.80;;;;;;13078538;22;20571;-88
2022/07/13 13:32:34;;;;;;;5.28;2.50;;;26.30;94.60;;;;;;13081326;22;20181;-88
2022/07/13 13:37:36;;;;;;;2.38;1.95;;;25.80;94.40;;;;;;13080545;22;20245;-87
2022/07/13 13:42:39;;;;;;;3.17;2.20;;;26.00;93.80;;;;;;13081314;22;20176;-87
2022/07/13 13:47:55;;;;;;;3.05;2.03;;;25.70;94.30;;;;;;13058891;22;20249;-87
2022/07/13 13:52:57;;;;;;;2.30;1.95;;;25.80;93.70;;;;;;13082477;22;20164;-87
2022/07/13 13:58:01;;;;;;;2.25;2.05;;;25.30;93.90;;;;;;13081732;22;20164;-87
2022/07/13 14:03:04;;;;;;;2.42;2.05;;;25.10;95.70;;;;;;13101740;22;20168;-87
2022/07/13 14:08:06;;;;;;;3.30;1.80;;;24.80;96.60;;;;;;13098682;22;20188;-87
2022/07/13 14:13:09;;;;;;;1.60;1.35;;;25.00;95.20;;;;;;13081953;22;20246;-87
2022/07/13 14:18:13;;;;;;;3.63;1.83;;;25.40;94.10;;;;;;13126998;22;20172;-87
2022/07/13 14:23:16;;;;;;;3.40;1.52;;;25.50;92.30;;;;;;13081821;22;20554;-87
2022/07/13 14:28:19;;;;;;;4.53;1.42;;;25.60;91.80;;;;;;13080171;22;20196;-86
2022/07/13 14:33:22;;;;;;;5.05;2.13;;;25.80;78.30;;;;;;13109118;22;20561;-86
2022/07/13 14:38:24;;;;;;;3.03;1.65;;;26.10;87.50;;;;;;13107339;22;20561;-87
2022/07/13 14:43:35;;;;;;;2.10;1.65;;;25.60;91.00;;;;;;13080409;22;20180;-87
2022/07/13 14:48:38;;;;;;;6.45;2.08;;;25.70;80.80;;;;;;13081668;22;20565;-87
2022/07/13 14:53:57;;;;;;;1.70;1.42;;;25.60;88.90;;;;;;13097040;22;20568;-87
2022/07/13 14:58:59;;;;;;;1.27;0.80;;;25.20;76.20;;;;;;13099278;22;20481;-92
2022/07/13 15:04:02;;;;;;;2.40;0.47;;;25.10;70.40;;;;;;13080238;22;20225;-87
2022/07/13 15:09:05;;;;;;;0.65;0.55;;;25.40;69.10;;;;;;13080588;22;20564;-86
2022/07/13 15:14:14;;;;;;;1.20;0.28;;;25.60;69.60;;;;;;13056355;22;20210;-86
2022/07/13 15:19:17;;;;;;;2.35;0.60;;;25.40;70.40;;;;;;13108612;22;20164;-87
2022/07/13 15:24:20;;;;;;;3.00;0.63;;;25.80;69.80;;;;;;13080148;22;20193;-87
2022/07/13 15:29:23;;;;;;;0.80;0.40;;;25.80;68.40;;;;;;13080417;22;20206;-87
2022/07/13 15:34:25;;;;;;;5.18;0.63;;;25.90;67.00;;;;;;13080132;22;20177;-87
2022/07/13 15:39:29;;;;;;;2.65;0.70;;;25.60;66.80;;;;;;13052886;22;20210;-87
2022/07/13 15:44:31;;;;;;;1.23;0.60;;;25.90;70.30;;;;;;13054814;22;20184;-87
2022/07/13 15:49:34;;;;;;;2.05;0.55;;;25.90;68.10;;;;;;13082024;22;20496;-87
2022/07/13 15:54:36;;;;;;;1.27;0.63;;;25.50;72.70;;;;;;13084456;22;20169;-87
2022/07/13 15:59:39;;;;;;;4.20;0.85;;;25.40;73.10;;;;;;13111447;22;20169;-87
2022/07/13 16:04:41;;;;;;;0.60;0.50;;;25.20;72.30;;;;;;13083366;22;20200;-87
2022/07/13 16:09:51;;;;;;;0.98;0.60;;;25.30;70.50;;;;;;13119078;22;20193;-87
2022/07/13 16:14:53;;;;;;;4.45;0.82;;;25.30;74.10;;;;;;13084364;22;20165;-87
2022/07/13 16:19:57;;;;;;;1.95;1.50;;;24.90;75.20;;;;;;13057518;22;20177;-86
2022/07/13 16:25:01;;;;;;;1.52;0.98;;;24.90;75.20;;;;;;13083277;22;20189;-87
2022/07/13 16:30:04;;;;;;;2.25;0.65;;;24.70;77.10;;;;;;13083362;22;20169;-87
2022/07/13 16:35:07;;;;;;;3.72;0.60;;;24.60;78.00;;;;;;13083971;22;20168;-87
2022/07/13 16:40:10;;;;;;;0.65;0.65;;;24.60;78.70;;;;;;13058428;22;20188;-87
2022/07/13 16:45:13;;;;;;;2.33;0.90;;;24.40;76.80;;;;;;13084135;22;20249;-87
2022/07/13 16:50:15;;;;;;;2.80;0.75;;;24.40;77.40;;;;;;13082375;22;20253;-87
2022/07/13 16:55:19;;;;;;;0.77;0.77;;;24.20;83.20;;;;;;13083240;22;20180;-87
2022/07/13 17:00:22;;;;;;;1.45;0.57;;;24.20;81.30;;;;;;13057412;22;20561;-87
2022/07/13 17:05:24;;;;;;;0.80;0.80;;;24.30;82.60;;;;;;13110298;22;20253;-87
2022/07/13 17:10:28;;;;;;;3.30;0.80;;;24.20;84.10;;;;;;13083606;22;20188;-94
2022/07/13 17:15:30;;;;;;;6.00;1.35;;;24.10;83.30;;;;;;13084080;22;20218;-92
2022/07/13 17:20:33;;;;;;;6.32;1.50;;;24.40;80.10;;;;;;13058638;22;20180;-92
2022/07/13 17:25:35;;;;;;;2.80;1.17;;;24.40;79.40;;;;;;13081179;22;20192;-87
2022/07/13 17:30:38;;;;;;;3.53;1.38;;;24.50;78.90;;;;;;13080988;22;20234;-86
2022/07/13 17:35:41;;;;;;;1.88;1.20;;;24.40;79.80;;;;;;13083808;22;20814;-87
2022/07/13 17:40:43;;;;;;;6.05;1.45;;;24.50;80.40;;;;;;13083148;22;20490;-86
2022/07/13 17:45:45;;;;;;;1.83;1.23;;;24.20;82.80;;;;;;13056053;22;20258;-87
2022/07/13 17:50:48;;;;;;;9.35;1.38;;;24.20;83.40;;;;;;13055730;22;20207;-88
2022/07/13 17:55:51;;;;;;;5.13;1.13;;;24.20;81.80;;;;;;13056333;22;20176;-87
2022/07/13 18:00:53;;;;;;;4.05;1.25;;;24.20;81.30;;;;;;13110703;22;20542;-87
2022/07/13 18:05:56;;;;;;;4.18;1.38;;;24.20;79.90;;;;;;13109906;22;20242;-87
2022/07/13 18:10:59;;;;;;;5.97;1.25;;;24.10;82.80;;;;;;13055966;22;20226;-87
2022/07/13 18:16:02;;;;;;;5.55;1.20;;;24.00;82.30;;;;;;13081292;22;20172;-87
2022/07/13 18:21:05;;;;;;;1.65;1.30;;;24.00;84.50;;;;;;13109440;22;20233;-87
2022/07/13 18:26:08;;;;;;;3.60;1.02;;;23.90;85.20;;;;;;13055963;22;20250;-87
2022/07/13 18:31:10;;;;;;;1.52;1.00;;;23.90;81.70;;;;;;13109693;22;20169;-87
2022/07/13 18:36:13;;;;;;;1.95;0.93;;;23.80;83.80;;;;;;13080872;22;20231;-87
2022/07/13 18:41:15;;;;;;;2.15;1.02;;;23.80;84.90;;;;;;13113382;22;20172;-87
2022/07/13 18:46:20;;;;;;;2.03;1.27;;;23.80;87.20;;;;;;13100440;22;20238;-87
2022/07/13 18:51:24;;;;;;;2.25;0.70;;;23.70;88.00;;;;;;13109180;22;20161;-87
2022/07/13 18:56:26;;;;;;;5.38;1.08;;;23.60;89.00;;;;;;13077861;22;20919;-87
2022/07/13 19:01:32;;;;;;;5.93;1.17;;;23.50;88.00;;;;;;13126400;22;20222;-88
2022/07/13 19:06:35;;;;;;;1.20;0.90;;;23.40;89.80;;;;;;13055321;22;20200;-89
2022/07/13 19:11:37;;;;;;;1.70;0.90;;;23.30;91.00;;;;;;13041066;22;20197;-88
2022/07/13 19:16:40;;;;;;;1.77;1.20;;;23.10;91.50;;;;;;13041212;22;20568;-87
2022/07/13 19:21:42;;;;;;;3.67;1.20;;;22.80;91.90;;;;;;13043857;22;20169;-88
2022/07/13 19:32:06;;;;;;;8.48;1.60;;;22.60;93.30;;;;;;13066544;22;20165;-88
2022/07/13 19:37:09;;;;;;;4.07;1.48;;;22.50;99.10;;;;;;13048290;22;20558;-88
2022/07/13 19:42:13;;;;;;;3.15;1.38;;;22.20;99.90;;;;;;13046989;22;20169;-86
2022/07/13 19:47:15;;;;;;;4.40;1.30;;;22.00;99.90;;;;;;13044779;22;20197;-88
2022/07/13 19:52:18;;;;;;;3.10;1.80;;;21.70;99.90;;;;;;13049040;22;20215;-87
2022/07/13 19:57:21;;;;;;;1.63;1.42;;;21.40;99.90;;;;;;13045797;22;20189;-88
2022/07/13 20:02:24;;;;;;;12.98;1.60;;;20.90;99.90;;;;;;13044291;22;20173;-87
2022/07/13 20:07:27;;;;;;;3.38;1.42;;;20.40;99.90;;;;;;13047109;22;20185;-87
2022/07/13 20:12:29;;;;;;;5.35;1.42;;;20.00;99.90;;;;;;13103143;22;20196;-87
2022/07/13 20:17:32;;;;;;;2.00;1.50;;;19.70;99.90;;;;;;13112371;22;20198;-87
2022/07/13 20:22:35;;;;;;;3.30;1.30;;;19.50;99.90;;;;;;13111161;22;20226;-87
2022/07/13 20:27:37;;;;;;;4.90;1.92;;;19.10;99.90;;;;;;13102546;22;20184;-87
2022/07/13 20:32:40;;;;;;;4.57;1.80;;;18.90;99.90;;;;;;13083833;22;20164;-87
2022/07/13 20:37:43;;;;;;;1.90;1.63;;;18.70;99.90;;;;;;13110446;22;20730;-87
2022/07/13 20:42:45;;;;;;;5.05;1.80;;;18.50;99.90;;;;;;13082927;22;20176;-87
2022/07/13 20:47:48;;;;;;;2.03;1.17;;;18.40;99.90;;;;;;13083880;22;20210;-87
2022/07/13 20:52:50;;;;;;;1.00;0.90;;;18.80;99.90;;;;;;13130388;22;20164;-87
2022/07/13 20:57:53;;;;;;;1.60;1.25;;;20.10;99.90;;;;;;13129019;22;20172;-87
2022/07/13 21:02:56;;;;;;;1.40;1.30;;;20.70;99.90;;;;;;13083826;22;20168;-88
2022/07/13 21:08:00;;;;;;;1.75;1.10;;;21.10;99.90;;;;;;13081758;22;20254;-88
2022/07/13 21:13:02;;;;;;;2.80;0.93;;;21.50;99.90;;;;;;13055925;22;20204;-88
2022/07/13 21:18:05;;;;;;;3.38;1.30;;;21.60;99.90;;;;;;13128921;22;20165;-87
2022/07/13 21:23:11;;;;;;;1.00;0.90;;;21.80;99.90;;;;;;13082654;22;20172;-88
2022/07/13 21:28:13;;;;;;;1.83;1.05;;;21.90;99.90;;;;;;13128909;22;20210;-87
2022/07/13 21:33:16;;;;;;;3.08;1.40;;;22.00;99.90;;;;;;13081982;22;20218;-88
2022/07/13 21:38:21;;;;;;;0.90;0.80;;;22.00;99.90;;;;;;13110060;22;20164;-87
2022/07/13 21:43:23;;;;;;;1.88;0.95;;;22.10;99.90;;;;;;13110206;22;20168;-87
2022/07/13 21:48:26;;;;;;;1.40;0.90;;;22.20;99.90;;;;;;13108861;22;20188;-87
2022/07/13 21:53:29;;;;;;;1.58;1.13;;;22.20;99.90;;;;;;13080407;22;20205;-87
2022/07/13 21:58:31;;;;;;;1.67;1.08;;;22.20;99.90;;;;;;13110548;22;20176;-87
2022/07/13 22:03:35;;;;;;;1.38;1.20;;;22.20;99.90;;;;;;13109598;22;20222;-87
2022/07/13 22:08:37;;;;;;;2.47;0.98;;;22.20;99.90;;;;;;13082809;22;20188;-87
2022/07/13 22:14:21;;;;;;;0.98;0.95;;;22.20;99.90;;;;;;13056024;22;20238;-87
2022/07/13 22:20:00;;;;;;;1.10;1.00;;;22.20;99.90;;;;;;13110554;22;20164;-86
2022/07/13 22:25:40;;;;;;;2.17;1.35;;;22.20;99.90;;;;;;13082149;22;20568;-86
2022/07/13 22:31:21;;;;;;;1.65;1.08;;;22.20;99.90;;;;;;13083433;22;20164;-86
2022/07/13 22:37:01;;;;;;;0.80;0.80;;;22.20;99.90;;;;;;13110580;22;20206;-87
2022/07/13 22:42:41;;;;;;;3.05;1.30;;;22.20;99.90;;;;;;13081484;22;20176;-86
2022/07/13 22:48:22;;;;;;;1.25;0.95;;;22.30;99.90;;;;;;13082150;22;20187;-87
2022/07/13 22:54:02;;;;;;;1.88;1.38;;;22.30;99.90;;;;;;13056186;22;20233;-86
2022/07/13 22:59:42;;;;;;;1.50;0.98;;;22.30;99.90;;;;;;13110586;22;20165;-87
2022/07/13 23:05:22;;;;;;;1.10;1.05;;;22.30;99.90;;;;;;13085901;22;20186;-87
2022/07/13 23:11:02;;;;;;;1.13;0.90;;;22.30;99.90;;;;;;13084835;22;20200;-87
2022/07/13 23:16:43;;;;;;;2.33;1.00;;;22.30;99.90;;;;;;13112518;22;20164;-87
2022/07/13 23:22:23;;;;;;;2.00;1.25;;;22.30;99.90;;;;;;13086225;22;20507;-87
2022/07/13 23:28:03;;;;;;;1.38;1.00;;;22.30;99.90;;;;;;13059039;22;20666;-87
2022/07/13 23:33:06;;;;;;;1.23;1.13;;;22.30;99.90;;;;;;13112577;22;20502;-87
2022/07/13 23:38:09;;;;;;;1.30;1.20;;;22.30;99.90;;;;;;13113469;22;20194;-87
2022/07/13 23:43:13;;;;;;;1.27;1.10;;;22.40;99.90;;;;;;13086846;22;20210;-87
2022/07/13 23:48:15;;;;;;;2.17;1.45;;;22.40;99.90;;;;;;13113047;22;20245;-87
2022/07/13 23:53:18;;;;;;;1.35;1.20;;;22.40;99.90;;;;;;13085393;22;20218;-87
2022/07/13 23:58:23;;;;;;;1.13;0.90;;;22.40;99.90;;;;;;13113089;22;20226;-87
